• Join FlightAware (Why Join?)
  • Login
  • US Flag 
03:00AM EDT


 

Airport Tracker/Info


-or-


 

Live Flight TrackerFlight Track Log ✈ SWA1817 ✈ 13-Apr-2013 ✈ KPVD - KFLL

Flight Track Log - Related Links

Times and Time Zones

All times are in EDT time to prevent confusion due to time zone crossing. See the SWA1817 flight status page for this flight to view local times or setup timezone preferences in your user account.

Time Position Orientation Groundspeed Altitude Reporting Facility
EDT Latitude Longitude Course Direction KTS MPH feet Rate Location/Type
05:20PM 41.7061 -71.4419 152° Southeast 142 163 1,000  Level Boston Center
05:21PM 41.6558 -71.4064 152° Southeast 217 250 3,200 2,040 Climbing Boston Center
05:21PM 41.6097 -71.3933 168° South 270 311 4,500 2,160 Climbing Boston Center
05:22PM 41.5931 -71.3908 174° South 260 299 5,300 3,780 Climbing Boston Center
05:22PM 41.5389 -71.3694 164° South 312 359 8,200 2,700 Climbing Boston Center
05:23PM 41.4572 -71.3433 167° South 312 359 10,000 1,800 Climbing Boston Center
05:24PM 41.3611 -71.3117 166° South 342 394 11,800 2,460 Climbing Boston Center
05:25PM 41.2783 -71.3656 206° Southwest 339 390 14,900 3,000 Climbing Boston Center
05:26PM 41.2333 -71.4658 239° Southwest 320 368 17,900 2,760 Climbing Boston Center
05:27PM 41.1778 -71.5714 235° Southwest 340 391 20,600 2,700 Climbing Boston Center
05:28PM 41.1244 -71.6822 237° Southwest 353 406 23,400 2,340 Climbing Boston Center
05:29PM 41.0542 -71.7822 227° Southwest 365 420 25,300 1,740 Climbing Boston Center
05:30PM 40.9861 -71.8931 231° Southwest 380 437 26,900 2,160 Climbing Boston Center
05:31PM 40.9011 -71.9897 221° Southwest 380 437 29,700 2,400 Climbing Boston Center
05:32PM 40.8286 -72.0836 224° Southwest 380 437 31,800 1,980 Climbing Boston Center
05:33PM 40.7578 -72.1744 224° Southwest 367 422 33,800 1,680 Climbing Boston Center
05:34PM 40.6831 -72.2567 220° Southwest 361 415 35,300 1,080 Climbing Boston Center
05:35PM 40.6164 -72.3472 226° Southwest 361 415 36,000 300 Climbing Boston Center
05:36PM 40.5414 -72.4375 222° Southwest 361 415 36,000  Level Boston Center
05:37PM 40.4747 -72.5300 227° Southwest 361 415 36,000  Level Boston Center
05:38PM 40.4058 -72.6228 226° Southwest 354 407 36,000  Level Boston Center
05:40PM 40.2906 -72.7658 223° Southwest 331 381 36,000  Level Washington Center
05:41PM 40.2197 -72.8583 225° Southwest 373 429 36,000  Level Washington Center
05:42PM 40.1508 -72.9453 224° Southwest 355 409 36,000  Level Washington Center
05:43PM 40.0819 -73.0344 225° Southwest 355 409 36,000  Level Washington Center
05:44PM 40.0089 -73.1239 223° Southwest 365 420 36,000  Level Washington Center
05:45PM 39.9397 -73.2103 224° Southwest 365 420 36,000  Level Washington Center
05:46PM 39.8667 -73.2992 223° Southwest 365 420 36,000  Level Washington Center
05:47PM 39.7994 -73.3878 225° Southwest 365 420 36,000  Level Washington Center
05:48PM 39.7342 -73.4625 221° Southwest 360 414 36,000  Level Washington Center
05:49PM 39.6544 -73.5567 222° Southwest 360 414 36,000  Level Washington Center
05:50PM 39.5853 -73.6475 225° Southwest 372 428 36,000  Level Washington Center
05:51PM 39.5158 -73.7353 224° Southwest 365 420 36,000  Level Washington Center
05:52PM 39.4419 -73.8233 223° Southwest 371 427 36,000  Level Washington Center
05:53PM 39.3703 -73.9083 223° Southwest 371 427 36,000  Level Washington Center
05:54PM 39.2986 -73.9986 224° Southwest 366 421 36,000  Level Washington Center
05:55PM 39.2267 -74.0831 222° Southwest 366 421 36,000  Level Washington Center
05:56PM 39.1550 -74.1703 223° Southwest 366 421 36,000  Level Washington Center
05:57PM 39.0828 -74.2547 222° Southwest 366 421 36,000  Level Washington Center
05:58PM 39.0131 -74.3442 225° Southwest 366 421 36,000  Level Washington Center
05:59PM 38.9408 -74.4253 221° Southwest 361 415 36,000  Level Washington Center
06:00PM 38.8728 -74.5092 224° Southwest 355 409 36,000  Level Washington Center
06:01PM 38.7986 -74.5956 222° Southwest 349 402 36,000  Level Washington Center
06:02PM 38.7283 -74.6817 224° Southwest 349 402 36,000  Level Washington Center
06:03PM 38.6561 -74.7650 222° Southwest 349 402 36,000  Level Washington Center
06:04PM 38.5858 -74.8506 224° Southwest 354 407 36,000  Level Washington Center
06:05PM 38.5111 -74.9389 223° Southwest 359 413 36,000  Level Washington Center
06:06PM 38.4367 -75.0219 221° Southwest 359 413 36,000  Level Washington Center
06:07PM 38.3619 -75.1072 222° Southwest 359 413 36,000  Level Washington Center
06:08PM 38.2997 -75.1922 227° Southwest 364 419 36,000  Level Washington Center
06:09PM 38.2247 -75.2747 221° Southwest 369 425 36,000  Level Washington Center
06:10PM 38.1519 -75.3594 222° Southwest 369 425 36,000  Level Washington Center
06:11PM 38.0814 -75.4467 224° Southwest 369 425 36,000  Level Washington Center
06:12PM 37.9978 -75.5100 211° Southwest 364 419 36,000  Level Washington Center
06:13PM 37.9042 -75.5603 203° Southwest 364 419 36,000  Level Washington Center
06:14PM 37.8144 -75.6156 206° Southwest 364 419 36,000  Level Washington Center
06:15PM 37.7247 -75.6681 205° Southwest 364 419 36,000  Level Washington Center
06:16PM 37.6328 -75.7231 205° Southwest 364 419 36,000  Level Washington Center
06:17PM 37.5431 -75.7753 205° Southwest 364 419 36,000  Level Washington Center
06:18PM 37.4492 -75.8300 205° Southwest 364 419 36,000  Level Washington Center
06:19PM 37.3594 -75.8844 206° Southwest 364 419 36,000  Level Washington Center
06:20PM 37.2694 -75.9364 205° Southwest 364 419 36,000 -60 Level Washington Center
06:21PM 37.1797 -75.9881 205° Southwest 364 419 35,900  Descending Washington Center
06:22PM 37.0836 -76.0450 205° Southwest 364 419 36,000  Climbing Washington Center
06:23PM 36.9958 -76.0989 206° Southwest 359 413 36,000  Level Washington Center
06:24PM 36.8994 -76.1478 202° Southwest 364 419 36,000  Level Washington Center
06:25PM 36.8097 -76.1989 205° Southwest 359 413 36,000  Level Washington Center
06:26PM 36.7175 -76.2528 205° Southwest 359 413 36,000  Level Washington Center
06:27PM 36.6275 -76.3089 207° Southwest 364 419 36,000  Level Washington Center
06:28PM 36.5375 -76.3572 203° Southwest 364 419 36,000  Level Washington Center
06:29PM 36.4453 -76.4131 206° Southwest 364 419 36,000  Level Washington Center
06:30PM 36.3553 -76.4664 206° Southwest 364 419 36,000  Level Washington Center
06:31PM 36.2672 -76.5297 210° Southwest 364 419 36,000  Level Washington Center
06:32PM 36.1789 -76.5931 210° Southwest 370 426 36,000  Level Washington Center
06:33PM 36.0950 -76.6536 210° Southwest 370 426 36,000  Level Washington Center
06:34PM 36.0047 -76.7142 208° Southwest 370 426 36,000  Level Washington Center
06:35PM 35.9206 -76.7794 212° Southwest 365 420 36,000  Level Washington Center
06:36PM 35.8344 -76.8397 210° Southwest 365 420 36,000  Level Washington Center
06:37PM 35.7461 -76.8997 209° Southwest 360 414 36,000  Level Washington Center
06:38PM 35.6497 -76.9367 197° South 355 409 36,000  Level Washington Center
06:39PM 35.5639 -76.9733 199° South 355 409 36,000  Level Washington Center
06:40PM 35.4675 -77.0125 198° South 360 414 36,000  Level Washington Center
06:41PM 35.3689 -77.0542 199° South 367 422 36,000  Level Washington Center
06:42PM 35.2744 -77.0931 199° South 367 422 36,000  Level Washington Center
06:43PM 35.1781 -77.1344 199° South 367 422 36,000  Level Washington Center
06:44PM 35.0836 -77.1733 199° South 367 422 36,000  Level Washington Center
06:45PM 34.9872 -77.2119 198° South 367 422 36,000  Level Washington Center
06:46PM 34.8864 -77.2556 200° South 367 422 36,000  Level Washington Center
06:47PM 34.7939 -77.2942 199° South 367 422 36,000  Level Washington Center
06:48PM 34.6953 -77.3325 198° South 367 422 36,000  Level Washington Center
06:49PM 34.5989 -77.3733 199° South 367 422 36,000  Level Washington Center
06:50PM 34.5022 -77.4117 198° South 367 422 36,000  Level Washington Center
06:51PM 34.4056 -77.4522 199° South 367 422 36,000  Level Washington Center
06:52PM 34.3069 -77.4928 199° South 367 422 36,000  Level Washington Center
06:53PM 34.2061 -77.5331 198° South 367 422 36,000  Level Washington Center
06:54PM 34.1075 -77.5708 198° South 367 422 36,000  Level Washington Center
06:55PM 34.0047 -77.6111 198° South 372 428 36,000  Level Washington Center
06:56PM 33.9039 -77.6511 198° South 377 434 36,000  Level Washington Center
06:56PM 33.8678 -77.6628 195° South 376 433 36,000  Level Jacksonville Center
06:57PM 33.7778 -77.7033 201° Southwest 391 450 36,000  Level Jacksonville Center
06:58PM 33.6731 -77.7444 198° South 397 457 36,000  Level Jacksonville Center
06:59PM 33.5703 -77.7878 199° South 397 457 36,000  Level Jacksonville Center
07:00PM 33.4675 -77.8261 197° South 397 457 36,000  Level Jacksonville Center
07:01PM 33.3650 -77.8667 198° South 397 457 36,000  Level Jacksonville Center
07:02PM 33.2600 -77.9075 198° South 397 457 36,000  Level Jacksonville Center
07:03PM 33.1575 -77.9503 199° South 397 457 36,000 360 Level Jacksonville Center
07:04PM 33.0525 -77.9883 197° South 397 457 36,800 840 Climbing Jacksonville Center
07:05PM 32.9478 -78.0311 199° South 397 457 37,700 900 Climbing Jacksonville Center
07:06PM 32.8408 -78.0742 199° South 397 457 38,600 900 Climbing Jacksonville Center
07:07PM 32.7358 -78.1142 198° South 397 457 39,600 660 Climbing Jacksonville Center
07:08PM 32.6289 -78.1569 199° South 397 457 40,000 180 Climbing Jacksonville Center
07:09PM 32.5178 -78.1972 197° South 402 463 40,000  Level Jacksonville Center
07:10PM 32.4108 -78.2394 198° South 402 463 40,000  Level Jacksonville Center
07:11PM 32.2978 -78.2847 199° South 415 478 40,000  Level Jacksonville Center
07:12PM 32.1906 -78.3269 198° South 415 478 40,000  Level Jacksonville Center
07:13PM 32.0794 -78.3717 199° South 420 483 40,000  Level Jacksonville Center
07:14PM 31.9703 -78.4111 197° South 420 483 40,000  Level Jacksonville Center
07:15PM 31.8592 -78.4533 198° South 420 483 40,000  Level Jacksonville Center
07:16PM 31.7500 -78.4975 199° South 420 483 40,000  Level Jacksonville Center
07:17PM 31.6389 -78.5394 198° South 420 483 40,000  Level Jacksonville Center
07:18PM 31.5275 -78.5789 197° South 420 483 40,000  Level Jacksonville Center
07:19PM 31.4164 -78.6278 201° Southwest 425 489 40,000  Level Jacksonville Center
07:20PM 31.3111 -78.6642 196° South 420 483 40,000  Level Jacksonville Center
07:21PM 31.2039 -78.7031 197° South 420 483 40,000  Level Jacksonville Center
07:22PM 31.0925 -78.7419 197° South 420 483 40,000  Level Jacksonville Center
07:23PM 30.9708 -78.7908 199° South 420 483 40,000  Level Jacksonville Center
07:25PM 30.7222 -78.8842 198° South 424 488 40,000  Level Miami Center
07:26PM 30.6133 -78.9253 198° South 424 488 40,000  Level Miami Center
07:27PM 30.5044 -78.9667 198° South 424 488 40,000  Level Miami Center
07:28PM 30.3892 -79.0028 195° South 424 488 40,000  Level Miami Center
07:29PM 30.2783 -79.0342 194° South 428 493 40,000  Level Miami Center
07:30PM 30.1550 -79.0628 191° South 434 499 40,000  Level Miami Center
07:31PM 30.0439 -79.0942 194° South 429 494 40,000  Level Miami Center
07:32PM 29.9433 -79.1256 195° South 424 488 40,000  Level Miami Center
07:33PM 29.8283 -79.1542 192° South 424 488 40,000  Level Miami Center
07:34PM 29.7111 -79.1828 192° South 424 488 40,000  Level Miami Center
07:35PM 29.5978 -79.2161 194° South 431 496 40,000  Level Miami Center
07:36PM 29.4806 -79.2397 190° South 426 490 40,000  Level Miami Center
07:37PM 29.3656 -79.2683 192° South 431 496 40,000 -300 Level Miami Center
07:38PM 29.2522 -79.2992 193° South 431 496 39,400 -780 Descending Miami Center
07:39PM 29.1289 -79.3247 190° South 436 502 38,500 -900 Descending Miami Center
07:40PM 29.0114 -79.3603 195° South 436 502 37,600 -960 Descending Miami Center
07:41PM 28.8878 -79.3881 191° South 441 507 36,600 -960 Descending Miami Center
07:42PM 28.7661 -79.4186 192° South 446 513 35,700 -960 Descending Miami Center
07:43PM 28.6425 -79.4511 193° South 456 525 34,700 -900 Descending Miami Center
07:44PM 28.5208 -79.4792 191° South 451 519 34,000 -360 Descending Miami Center
07:45PM 28.3972 -79.5117 193° South 451 519 34,000  Level Miami Center
07:46PM 28.2736 -79.5417 192° South 451 519 34,000  Level Miami Center
07:47PM 28.1519 -79.5719 192° South 451 519 34,000  Level Miami Center
07:48PM 28.0200 -79.5828 184° South 462 532 34,000  Level Miami Center
07:49PM 27.8800 -79.5958 185° South 467 537 34,000  Level Miami Center
07:50PM 27.7525 -79.6044 183° South 467 537 34,000 -1,320 Level Miami Center
07:51PM 27.6228 -79.6156 184° South 473 544 31,400 -2,940 Descending Miami Center
07:52PM 27.4911 -79.6264 184° South 473 544 28,200 -3,000 Descending Miami Center
07:53PM 27.3739 -79.6353 184° South 473 544 25,400 -2,400 Descending Miami Center
07:54PM 27.2528 -79.6439 184° South 458 527 23,500 -2,100 Descending Miami Center
07:55PM 27.1333 -79.6553 185° South 414 476 21,300 -2,280 Descending Miami Center
07:56PM 27.0206 -79.6642 184° South 403 464 19,000 -2,280 Descending Miami Center
07:57PM 26.9158 -79.6708 183° South 397 457 16,800 -2,280 Descending Miami Center
07:58PM 26.8219 -79.6781 184° South 384 442 14,500 -2,340 Descending Miami Center
07:59PM 26.7192 -79.6986 190° South 380 437 12,200 -2,460 Descending Miami Center
08:00PM 26.6622 -79.7300 206° Southwest 353 406 10,800 -1,800 Descending Miami Center
08:00PM 26.6222 -79.7453 199° South 367 422 10,400 -1,680 Descending Miami Center
08:01PM 26.5736 -79.7694 204° Southwest 327 376 9,100 -2,100 Descending Miami Center
08:01PM 26.5442 -79.7828 202° Southwest 341 392 8,300 -1,140 Descending Miami Center
08:02PM 26.4914 -79.8092 204° Southwest 315 362 8,000 -300 Descending Miami Center
08:02PM 26.4597 -79.8225 201° Southwest 320 368 8,000  Level Miami Center
08:03PM 26.4153 -79.8469 206° Southwest 288 331 8,000  Level Miami Center
08:03PM 26.3922 -79.8533 194° South 295 339 8,000  Level Miami Center
08:04PM 26.3475 -79.8961 221° Southwest 283 326 8,000  Level Miami Center
08:04PM 26.3242 -79.9142 215° Southwest 284 327 8,000  Level Miami Center
08:05PM 26.2858 -79.9525 222° Southwest 279 321 8,000  Level Miami Center
08:05PM 26.2731 -79.9639 219° Southwest 284 327 8,000 -900 Level Miami Center
08:06PM 26.2281 -80.0089 222° Southwest 277 319 7,100 -1,320 Descending Miami Center
08:06PM 26.2175 -80.0203 224° Southwest 279 321 6,700 -1,140 Descending Miami Center
08:07PM 26.1747 -80.0675 225° Southwest 271 312 6,000 -720 Descending Miami Center
08:07PM 26.1722 -80.0839 260° West 273 314 6,000 -540 Level Miami Center
08:08PM 26.1564 -80.1389 252° West 219 252 5,500 -720 Descending Miami Center
08:08PM 26.1539 -80.1503 256° West 243 280 5,300 -540 Descending Miami Center
08:09PM 26.1528 -80.2083 269° West 223 257 5,000 -300 Descending Miami Center
08:09PM 26.1525 -80.2197 268° West 232 267 5,000  Level Miami Center
08:10PM 26.1492 -80.2731 266° West 203 234 5,000 -60 Level Miami Center
08:11PM 26.1497 -80.3356 271° West 210 242 4,900 -540 Descending Miami Center
08:12PM 26.1461 -80.4025 267° West 209 241 4,000 -600 Descending Miami Center
08:13PM 26.0919 -80.3961 174° South 203 234 3,800 -600 Descending Miami Center
08:14PM 26.0767 -80.3356 106° East 205 236 2,800 -1,020 Descending Miami Center
08:15PM 26.0761 -80.2731 91° East 205 236 1,800 -960 Descending Miami Center
08:16PM 26.0753 -80.2153 91° East 168 193 900 -900 Descending Miami Center
08:18PM 26.0667 -80.1500 103° East  Level FlightAware Approximate
08:25PM 26.0726 -80.1527 103° East  Level Estimated